createdAt,value
2023-02-18T00:00:15.971Z,7.4
2023-02-18T00:01:15.965Z,7.4
2023-02-18T00:02:17.226Z,7.4
2023-02-18T00:03:16.062Z,7.4
2023-02-18T00:04:15.975Z,7.4
2023-02-18T00:05:15.983Z,7.4
2023-02-18T00:06:15.989Z,7.4
2023-02-18T00:07:15.977Z,7.5
2023-02-18T00:08:16.075Z,7.5
2023-02-18T00:09:15.987Z,7.5
2023-02-18T00:10:16.028Z,7.5
2023-02-18T00:11:16.003Z,7.4
2023-02-18T00:12:15.978Z,7.4
2023-02-18T00:13:16.027Z,7.4
2023-02-18T00:15:30.770Z,7.4
2023-02-18T00:16:16.017Z,7.4
2023-02-18T00:17:15.991Z,7.4
2023-02-18T00:18:16.054Z,7.5
2023-02-18T00:19:16.024Z,7.5
2023-02-18T00:20:15.984Z,7.5
2023-02-18T00:21:15.984Z,7.5
2023-02-18T00:22:15.989Z,7.5
2023-02-18T00:23:15.983Z,7.6
2023-02-18T00:24:16.013Z,7.6
2023-02-18T00:25:16.317Z,7.7
2023-02-18T00:26:18.281Z,7.7
2023-02-18T00:27:21.284Z,7.7
2023-02-18T00:28:24.270Z,7.7
2023-02-18T00:29:26.289Z,7.6
2023-02-18T00:30:28.300Z,7.6
2023-02-18T00:31:30.365Z,7.6
2023-02-18T00:32:32.289Z,7.7
2023-02-18T00:33:34.325Z,7.6
2023-02-18T00:34:36.294Z,7.6
2023-02-18T00:35:38.284Z,7.6
2023-02-18T00:36:40.269Z,7.6
2023-02-18T00:37:42.278Z,7.6
2023-02-18T00:38:44.278Z,7.6
2023-02-18T00:39:46.327Z,7.7
2023-02-18T00:40:48.281Z,7.7
2023-02-18T00:41:51.284Z,7.7
2023-02-18T00:42:53.265Z,7.8
2023-02-18T00:43:55.290Z,7.8
2023-02-18T00:44:57.299Z,7.7
2023-02-18T00:45:59.402Z,7.7
2023-02-18T00:47:01.288Z,7.7
2023-02-18T00:48:03.292Z,7.8
2023-02-18T00:49:05.321Z,7.8
2023-02-18T00:50:07.318Z,7.8
2023-02-18T00:51:09.287Z,7.8
2023-02-18T00:52:12.280Z,7.7
2023-02-18T00:53:14.280Z,7.7
2023-02-18T00:54:16.326Z,7.6
2023-02-18T00:55:19.308Z,7.7
2023-02-18T00:56:21.322Z,7.7
2023-02-18T00:57:24.299Z,7.7
2023-02-18T00:58:26.323Z,7.7
2023-02-18T00:59:28.297Z,7.7
2023-02-18T01:01:16.096Z,7.8
2023-02-18T01:02:16.015Z,7.7
2023-02-18T01:03:16.017Z,7.8
2023-02-18T01:04:16.056Z,7.8
2023-02-18T01:05:16.015Z,7.8
2023-02-18T01:06:16.027Z,7.9
2023-02-18T01:07:16.017Z,7.9
2023-02-18T01:08:16.019Z,7.9
2023-02-18T01:09:16.014Z,7.9
2023-02-18T01:10:17.756Z,7.8
2023-02-18T01:11:16.038Z,7.9
2023-02-18T01:12:16.026Z,7.8
2023-02-18T01:13:16.036Z,7.8
2023-02-18T01:14:16.023Z,7.8
2023-02-18T01:15:16.027Z,7.8
2023-02-18T01:16:16.162Z,7.8
2023-02-18T01:17:16.054Z,7.7
2023-02-18T01:20:16.065Z,7.6
2023-02-18T01:21:16.061Z,7.5
2023-02-18T01:22:16.043Z,7.4
2023-02-18T01:23:17.542Z,7.4
2023-02-18T01:24:19.541Z,7.4
2023-02-18T01:25:21.551Z,7.5
2023-02-18T01:26:25.546Z,7.5
2023-02-18T01:28:29.536Z,7.6
2023-02-18T01:29:31.542Z,7.6
2023-02-18T01:30:33.603Z,7.6
2023-02-18T01:31:35.666Z,7.6
2023-02-18T01:32:37.554Z,7.6
2023-02-18T01:33:39.565Z,7.5
2023-02-18T01:34:41.615Z,7.5
2023-02-18T01:35:44.547Z,7.5
2023-02-18T01:36:46.538Z,7.5
2023-02-18T01:37:48.544Z,7.5
2023-02-18T01:39:52.548Z,7.5
2023-02-18T01:40:54.549Z,7.6
2023-02-18T01:41:56.549Z,7.6
2023-02-18T01:42:58.556Z,7.6
2023-02-18T01:44:00.543Z,7.5
2023-02-18T01:45:03.546Z,7.5
2023-02-18T01:46:05.828Z,7.4
2023-02-18T01:47:07.551Z,7.4
2023-02-18T01:48:09.565Z,7.4
2023-02-18T01:49:11.573Z,7.3
2023-02-18T01:50:13.562Z,7.3
2023-02-18T01:51:15.544Z,7.3
2023-02-18T01:52:17.552Z,7.3
2023-02-18T01:53:21.585Z,7.3
2023-02-18T01:54:24.549Z,7.3
2023-02-18T01:55:26.563Z,7.3
2023-02-18T01:56:29.555Z,7.3
2023-02-18T01:57:31.566Z,7.3
2023-02-18T01:58:33.567Z,7.3
2023-02-18T01:59:35.552Z,7.3
2023-02-18T02:04:52.969Z,7.3
2023-02-18T02:06:34.732Z,7.3
2023-02-18T02:10:28.463Z,7.3
2023-02-18T02:11:30.385Z,7.3
2023-02-18T02:12:32.416Z,7.3
2023-02-18T02:16:41.774Z,7.3
2023-02-18T02:17:43.695Z,7.3
2023-02-18T02:18:45.744Z,7.3
2023-02-18T02:19:48.732Z,7.5
2023-02-18T02:20:50.684Z,7.5
2023-02-18T02:21:52.686Z,7.4
2023-02-18T02:22:55.685Z,7.4
2023-02-18T02:23:57.693Z,7.4
2023-02-18T02:24:59.684Z,7.4
2023-02-18T02:26:01.695Z,7.4
2023-02-18T02:27:06.855Z,7.4
2023-02-18T02:28:06.679Z,7.3
2023-02-18T02:29:08.712Z,7.3
2023-02-18T02:30:10.716Z,7.2
2023-02-18T02:31:12.750Z,7.2
2023-02-18T02:32:15.698Z,7.2
2023-02-18T02:33:19.702Z,7.3
2023-02-18T02:34:21.711Z,7.3
2023-02-18T02:35:23.765Z,7.4
2023-02-18T02:36:25.691Z,7.5
2023-02-18T02:37:27.691Z,7.6
2023-02-18T02:38:29.744Z,7.6
2023-02-18T02:39:31.691Z,7.6
2023-02-18T02:40:33.707Z,7.7
2023-02-18T02:41:35.753Z,7.7
2023-02-18T02:42:37.736Z,7.7
2023-02-18T02:43:39.702Z,7.7
2023-02-18T02:44:41.703Z,7.7
2023-02-18T02:45:43.735Z,7.7
2023-02-18T02:46:45.704Z,7.7
2023-02-18T02:47:47.728Z,7.7
2023-02-18T02:48:49.778Z,7.7
2023-02-18T02:49:51.709Z,7.7
2023-02-18T02:50:53.754Z,7.7
2023-02-18T02:51:55.703Z,7.7
2023-02-18T02:52:57.752Z,7.7
2023-02-18T02:53:59.732Z,7.7
2023-02-18T02:55:01.723Z,7.7
2023-02-18T02:56:03.769Z,7.7
2023-02-18T02:57:05.712Z,7.7
2023-02-18T02:58:07.719Z,7.7
2023-02-18T02:59:09.749Z,7.7
2023-02-18T03:00:11.720Z,7.8
2023-02-18T03:01:13.744Z,7.7
2023-02-18T03:02:15.730Z,7.7
2023-02-18T03:03:19.869Z,7.7
2023-02-18T03:04:21.753Z,7.6
2023-02-18T03:05:23.745Z,7.6
2023-02-18T03:06:25.772Z,7.6
2023-02-18T03:07:27.721Z,7.6
2023-02-18T03:08:29.766Z,7.6
2023-02-18T03:09:31.760Z,7.6
2023-02-18T03:10:33.734Z,7.6
2023-02-18T03:11:35.742Z,7.6
2023-02-18T03:12:37.730Z,7.6
2023-02-18T03:13:39.715Z,7.6
2023-02-18T03:14:41.729Z,7.6
2023-02-18T03:15:43.727Z,7.6
2023-02-18T03:16:45.800Z,7.6
2023-02-18T03:17:47.729Z,7.6
2023-02-18T03:18:49.776Z,7.7
2023-02-18T03:19:51.734Z,7.7
2023-02-18T03:20:54.730Z,7.7
2023-02-18T03:21:56.739Z,7.7
2023-02-18T03:22:58.735Z,7.7
2023-02-18T03:24:00.743Z,7.7
2023-02-18T03:25:02.735Z,7.7
2023-02-18T03:26:04.767Z,7.8
2023-02-18T03:27:06.740Z,7.8
2023-02-18T03:28:08.747Z,7.8
2023-02-18T03:29:10.736Z,7.7
2023-02-18T03:30:12.805Z,7.7
2023-02-18T03:31:15.835Z,7.7
2023-02-18T03:32:18.859Z,7.7
2023-02-18T03:33:20.734Z,7.7
2023-02-18T03:34:22.765Z,7.7
2023-02-18T03:35:24.741Z,7.6
2023-02-18T03:36:26.969Z,7.7
2023-02-18T03:37:28.746Z,7.7
2023-02-18T03:38:30.789Z,7.7
2023-02-18T03:39:32.744Z,7.7
2023-02-18T03:40:35.750Z,7.7
2023-02-18T03:41:37.770Z,7.7
2023-02-18T03:42:39.745Z,7.7
2023-02-18T03:43:41.749Z,7.7
2023-02-18T03:44:43.743Z,7.7
2023-02-18T03:45:45.762Z,7.7
2023-02-18T03:46:47.762Z,7.7
2023-02-18T03:47:49.749Z,7.7
2023-02-18T03:48:51.752Z,7.7
2023-02-18T03:49:54.747Z,7.7
2023-02-18T03:50:56.787Z,7.7
2023-02-18T03:51:58.757Z,7.7
2023-02-18T03:53:00.758Z,7.6
2023-02-18T03:55:04.862Z,7.7
2023-02-18T03:56:07.349Z,7.6
2023-02-18T03:57:08.760Z,7.7
2023-02-18T03:58:10.756Z,7.7
2023-02-18T03:59:12.765Z,7.7
2023-02-18T04:00:15.769Z,7.7
2023-02-18T04:01:18.788Z,7.7
2023-02-18T04:02:20.756Z,7.7
2023-02-18T04:03:22.759Z,7.8
2023-02-18T04:04:24.863Z,7.8
2023-02-18T04:05:26.755Z,7.8
2023-02-18T04:06:28.781Z,7.8
2023-02-18T04:07:30.794Z,7.8
2023-02-18T04:08:32.759Z,7.8
2023-02-18T04:09:34.757Z,7.7
2023-02-18T04:10:36.762Z,7.7
2023-02-18T04:11:38.765Z,7.7
2023-02-18T04:12:40.779Z,7.7
2023-02-18T04:13:42.809Z,7.7
2023-02-18T04:14:44.788Z,7.7
2023-02-18T04:15:46.759Z,7.7
2023-02-18T04:16:49.819Z,7.7
2023-02-18T04:17:52.766Z,7.7
2023-02-18T04:18:54.784Z,7.7
2023-02-18T04:20:16.178Z,7.7
2023-02-18T04:21:16.176Z,7.7
2023-02-18T04:22:16.156Z,7.7
2023-02-18T04:23:16.174Z,7.7
2023-02-18T04:24:16.153Z,7.7
2023-02-18T04:25:16.205Z,7.7
2023-02-18T04:26:16.194Z,7.7
2023-02-18T04:27:16.153Z,7.8
2023-02-18T04:28:16.145Z,7.8
2023-02-18T04:29:19.771Z,7.8
2023-02-18T04:30:21.872Z,7.8
2023-02-18T04:31:23.882Z,7.8
2023-02-18T04:32:25.780Z,7.8
2023-02-18T04:33:27.784Z,7.8
2023-02-18T04:34:29.798Z,7.7
2023-02-18T04:35:31.797Z,7.7
2023-02-18T04:36:33.803Z,7.7
2023-02-18T04:44:41.701Z,7.7
2023-02-18T04:45:43.609Z,7.7
2023-02-18T04:46:45.623Z,7.7
2023-02-18T04:47:47.606Z,7.7
2023-02-18T04:48:49.640Z,7.7
2023-02-18T04:50:18.937Z,7.8
2023-02-18T04:51:16.070Z,7.7
2023-02-18T04:52:16.080Z,7.7
2023-02-18T04:53:16.224Z,7.7
2023-02-18T04:54:16.101Z,7.7
2023-02-18T04:57:28.712Z,7.7
2023-02-18T04:58:30.715Z,7.7
2023-02-18T04:59:32.743Z,7.7
2023-02-18T05:00:34.730Z,7.7
2023-02-18T05:01:36.862Z,7.7
2023-02-18T05:02:38.724Z,7.7
2023-02-18T05:03:55.106Z,7.7
2023-02-18T05:04:42.752Z,7.7
2023-02-18T05:05:44.724Z,7.7
2023-02-18T05:06:46.734Z,7.7
2023-02-18T05:07:48.789Z,7.7
2023-02-18T05:09:52.767Z,7.8
2023-02-18T05:10:54.777Z,7.7
2023-02-18T05:11:56.732Z,7.7
2023-02-18T05:12:58.784Z,7.8
2023-02-18T05:14:00.732Z,7.8
2023-02-18T05:15:02.781Z,7.7
2023-02-18T05:16:19.834Z,7.7
2023-02-18T05:17:22.812Z,7.7
2023-02-18T05:18:24.833Z,7.7
2023-02-18T05:19:28.816Z,7.7
2023-02-18T05:20:30.845Z,7.7
2023-02-18T05:21:32.808Z,7.7
2023-02-18T05:22:34.811Z,7.7
2023-02-18T05:23:36.817Z,7.7
2023-02-18T05:24:38.890Z,7.7
2023-02-18T05:25:40.862Z,7.7
2023-02-18T05:26:42.837Z,7.7
2023-02-18T05:27:44.830Z,7.7
2023-02-18T05:28:46.823Z,7.7
2023-02-18T05:29:48.815Z,7.7
2023-02-18T05:30:50.882Z,7.7
2023-02-18T05:31:52.974Z,7.7
2023-02-18T05:32:55.820Z,7.7
2023-02-18T05:33:57.829Z,7.7
2023-02-18T05:34:59.829Z,7.7
2023-02-18T05:36:01.845Z,7.7
2023-02-18T05:37:03.830Z,7.7
2023-02-18T05:38:06.821Z,7.7
2023-02-18T05:39:08.844Z,7.7
2023-02-18T05:40:10.920Z,7.7
2023-02-18T05:41:12.863Z,7.7
2023-02-18T05:42:14.825Z,7.7
2023-02-18T05:43:16.832Z,7.7
2023-02-18T05:44:18.830Z,7.7
2023-02-18T05:45:21.850Z,7.7
2023-02-18T05:46:24.896Z,7.7
2023-02-18T05:47:27.833Z,7.6
2023-02-18T05:48:29.831Z,7.6
2023-02-18T05:49:31.836Z,7.6
2023-02-18T05:50:33.837Z,7.6
2023-02-18T05:51:35.836Z,7.7
2023-02-18T05:57:55.758Z,7.7
2023-02-18T05:58:23.874Z,7.6
2023-02-18T06:01:30.861Z,7.7
2023-02-18T06:02:32.857Z,7.7
2023-02-18T06:03:34.794Z,7.7
2023-02-18T06:14:53.838Z,7.7
2023-02-18T06:26:22.398Z,7.7
2023-02-18T06:27:22.364Z,7.7
2023-02-18T07:10:00.584Z,8.1
2023-02-18T07:10:00.861Z,8.1
2023-02-18T07:11:00.109Z,8.2
2023-02-18T07:12:00.107Z,8.3
2023-02-18T07:14:00.088Z,8.3
2023-02-18T07:15:00.102Z,8.3
2023-02-18T07:16:00.148Z,8.3
2023-02-18T07:17:00.104Z,8.2
2023-02-18T07:18:00.103Z,8.2
2023-02-18T07:19:00.089Z,8.2
2023-02-18T07:20:00.114Z,8.2
2023-02-18T07:21:00.126Z,8.3
2023-02-18T07:22:00.099Z,8.2
2023-02-18T07:23:00.065Z,8.2
2023-02-18T07:24:00.070Z,8.2
2023-02-18T07:25:00.092Z,8.2
2023-02-18T07:26:00.095Z,8.3
2023-02-18T07:32:03.219Z,8.2
2023-02-18T07:33:05.188Z,8.2
2023-02-18T07:34:07.152Z,8.3
2023-02-18T07:35:09.237Z,8.2
2023-02-18T07:36:52.317Z,8.3
2023-02-18T07:37:52.335Z,8.3
2023-02-18T07:39:17.713Z,8.2
2023-02-18T07:40:19.797Z,8.3
2023-02-18T07:41:21.726Z,8.2
2023-02-18T07:42:23.760Z,8.3
2023-02-18T07:44:28.445Z,8.3
2023-02-18T07:45:30.447Z,8.3
2023-02-18T07:46:52.295Z,8.3
2023-02-18T07:47:52.337Z,8.3
2023-02-18T07:50:06.088Z,8.3
2023-02-18T07:51:08.143Z,8.3
2023-02-18T07:52:10.093Z,8.3
2023-02-18T07:53:13.150Z,8.2
2023-02-18T07:55:18.212Z,8.3
2023-02-18T07:57:34.446Z,8.3
2023-02-18T07:58:36.432Z,8.3
2023-02-18T07:59:38.431Z,8.3
2023-02-18T08:00:40.472Z,8.3
2023-02-18T08:02:44.488Z,8.3
2023-02-18T08:03:46.506Z,8.3
2023-02-18T08:04:48.430Z,8.3
2023-02-18T08:06:04.080Z,8.3
2023-02-18T08:06:52.661Z,8.3
2023-02-18T08:07:55.440Z,8.4
2023-02-18T08:08:57.439Z,8.4
2023-02-18T08:09:59.423Z,8.4
2023-02-18T08:11:07.159Z,8.4
2023-02-18T08:12:03.432Z,8.4
2023-02-18T08:13:05.465Z,8.4
2023-02-18T08:14:07.424Z,8.4
2023-02-18T08:15:09.429Z,8.4
2023-02-18T08:16:11.617Z,8.4
2023-02-18T08:17:14.435Z,8.4
2023-02-18T08:18:16.508Z,8.4
2023-02-18T08:19:18.452Z,8.4
2023-02-18T08:20:52.329Z,8.4
2023-02-18T08:21:52.371Z,8.4
2023-02-18T08:22:52.364Z,8.4
2023-02-18T08:23:52.343Z,8.4
2023-02-18T08:24:52.318Z,8.4
2023-02-18T08:26:34.458Z,8.4
2023-02-18T08:27:36.452Z,8.4
2023-02-18T08:28:38.459Z,8.4
2023-02-18T08:29:41.451Z,8.4
2023-02-18T08:30:43.636Z,8.4
2023-02-18T08:31:45.567Z,8.5
2023-02-18T08:32:47.473Z,8.5
2023-02-18T08:33:49.457Z,8.5
2023-02-18T08:34:51.449Z,8.5
2023-02-18T09:16:14.373Z,8.5
2023-02-18T09:16:35.711Z,9
2023-02-18T09:17:51.423Z,9
2023-02-18T09:18:53.388Z,9
2023-02-18T09:19:55.385Z,9
2023-02-18T09:26:49.347Z,9
2023-02-18T09:27:51.278Z,9
2023-02-18T09:28:53.265Z,9
2023-02-18T10:27:49.828Z,8.6
2023-02-18T10:27:50.277Z,8.5
2023-02-18T10:28:46.011Z,8.6
2023-02-18T10:30:21.469Z,8.7
2023-02-18T10:39:15.462Z,8.6
2023-02-18T10:39:15.905Z,8.6
2023-02-18T10:40:15.814Z,8.6
2023-02-18T10:41:17.773Z,8.6
2023-02-18T10:42:19.744Z,8.6
2023-02-18T10:43:21.739Z,8.6
2023-02-18T10:44:24.743Z,8.6
2023-02-18T10:45:26.771Z,8.6
2023-02-18T10:46:28.803Z,8.6
2023-02-18T10:47:30.788Z,8.6
2023-02-18T10:48:32.740Z,8.6
2023-02-18T10:49:34.757Z,8.6
2023-02-18T10:50:36.781Z,8.6
2023-02-18T10:53:44.830Z,8.6
2023-02-18T10:54:46.789Z,8.5
2023-02-18T10:55:48.756Z,8.4
2023-02-18T10:56:50.760Z,8.4
2023-02-18T10:57:52.757Z,8.4
2023-02-18T10:58:54.788Z,8.3
2023-02-18T11:00:58.757Z,8.3
2023-02-18T11:02:00.812Z,8.3
2023-02-18T11:03:02.752Z,8.3
2023-02-18T11:05:07.758Z,8.3
2023-02-18T11:06:49.717Z,8.2
2023-02-18T11:07:49.721Z,8.2
2023-02-18T11:15:49.387Z,8.2
2023-02-18T11:17:35.131Z,8.2
2023-02-18T11:17:35.604Z,8.2
2023-02-18T11:19:39.370Z,8.2
2023-02-18T11:20:55.001Z,8.2
2023-02-18T11:23:21.428Z,8.2
2023-02-18T11:24:05.136Z,8.1
2023-02-18T11:25:07.098Z,8.1
2023-02-18T11:27:13.010Z,8.1
2023-02-18T11:28:13.125Z,8.1
2023-02-18T11:29:15.098Z,8.1
2023-02-18T11:30:18.164Z,8.1
2023-02-18T11:32:22.168Z,8.1
2023-02-18T11:33:24.110Z,8.1
2023-02-18T11:35:29.102Z,8
2023-02-18T11:36:31.388Z,8.1
2023-02-18T11:37:33.123Z,8.1
2023-02-18T11:38:35.103Z,8
2023-02-18T11:39:37.116Z,8.1
2023-02-18T11:40:39.116Z,8
2023-02-18T11:41:42.165Z,8.1
2023-02-18T11:42:45.105Z,8.1
2023-02-18T11:43:47.653Z,8.1
2023-02-18T11:44:49.639Z,8.1
2023-02-18T11:45:51.650Z,8.1
2023-02-18T11:46:53.714Z,8.1
2023-02-18T11:52:06.073Z,8.1
2023-02-18T11:53:08.057Z,8.1
2023-02-18T11:55:23.287Z,8.2
2023-02-18T11:57:23.262Z,8.2
2023-02-18T11:59:23.155Z,8.2
2023-02-18T12:00:23.186Z,8.2
2023-02-18T12:01:24.131Z,8.2
2023-02-18T12:10:15.477Z,8.2
2023-02-18T12:10:16.884Z,8.2
2023-02-18T12:11:10.345Z,8.3
2023-02-18T12:13:11.898Z,8.3
2023-02-18T12:14:28.785Z,8.3
2023-02-18T12:15:31.825Z,8.3
2023-02-18T12:16:33.786Z,8.3
2023-02-18T12:17:35.776Z,8.3
2023-02-18T12:18:39.198Z,8.2
2023-02-18T12:19:39.786Z,8.2
2023-02-18T12:20:41.816Z,8.2
2023-02-18T12:21:43.848Z,8.2
2023-02-18T12:22:45.787Z,8.2
2023-02-18T12:23:48.904Z,8.2
2023-02-18T12:24:49.769Z,8.2
2023-02-18T12:25:52.867Z,8.2
2023-02-18T12:26:54.779Z,8.2
2023-02-18T12:27:56.818Z,8.2
2023-02-18T12:28:59.996Z,8.2
2023-02-18T12:30:06.649Z,8.2
2023-02-18T12:31:03.794Z,8.2
2023-02-18T12:33:37.019Z,8.2
2023-02-18T12:34:11.624Z,8.2
2023-02-18T12:55:19.326Z,8.5
2023-02-18T12:56:21.264Z,8.6
2023-02-18T12:58:09.979Z,8.6
2023-02-18T12:59:09.973Z,8.6
2023-02-18T13:00:09.974Z,8.6
2023-02-18T13:01:33.333Z,8.6
2023-02-18T13:02:35.309Z,8.6
2023-02-18T13:03:37.277Z,8.6
2023-02-18T13:04:39.271Z,8.6
2023-02-18T13:05:41.289Z,8.6
2023-02-18T13:06:43.247Z,8.6
2023-02-18T13:07:45.262Z,8.5
2023-02-18T13:08:47.302Z,8.5
2023-02-18T13:09:49.259Z,8.5
2023-02-18T13:10:51.260Z,8.5
2023-02-18T13:11:53.269Z,8.5
2023-02-18T13:12:55.265Z,8.6
2023-02-18T13:13:57.260Z,8.6
2023-02-18T13:14:59.271Z,8.6
2023-02-18T13:16:01.279Z,8.6
2023-02-18T13:17:03.313Z,8.6
2023-02-18T13:18:05.624Z,8.5
2023-02-18T13:19:07.259Z,8.6
2023-02-18T13:20:09.294Z,8.6
2023-02-18T13:21:11.267Z,8.6
2023-02-18T13:22:13.281Z,8.6
2023-02-18T13:23:16.274Z,8.6
2023-02-18T13:24:18.265Z,8.6
2023-02-18T13:25:20.263Z,8.6
2023-02-18T13:26:24.290Z,8.6
2023-02-18T13:27:27.325Z,8.5
2023-02-18T13:30:10.107Z,8.5
2023-02-18T13:31:10.367Z,8.5
2023-02-18T13:32:10.082Z,8.5
2023-02-18T13:33:10.034Z,8.5
2023-02-18T13:34:09.973Z,8.5
2023-02-18T13:35:10.005Z,8.5
2023-02-18T13:36:09.985Z,8.5
2023-02-18T13:37:09.985Z,8.5
2023-02-18T13:38:09.990Z,8.6
2023-02-18T13:39:52.941Z,8.6
2023-02-18T13:40:54.912Z,8.5
2023-02-18T13:41:56.920Z,8.5
2023-02-18T13:42:58.915Z,8.5
2023-02-18T13:44:00.947Z,8.5
2023-02-18T13:45:03.958Z,8.5
2023-02-18T13:46:05.956Z,8.5
2023-02-18T13:47:07.953Z,8.5
2023-02-18T13:48:09.920Z,8.5
2023-02-18T13:49:12.096Z,8.5
2023-02-18T13:50:13.925Z,8.5
2023-02-18T13:51:16.927Z,8.5
2023-02-18T13:53:21.401Z,8.5
2023-02-18T13:57:28.888Z,8.5
2023-02-18T13:58:09.996Z,8.4
2023-02-18T13:59:09.995Z,8.4
2023-02-18T14:00:10.038Z,8.4
2023-02-18T14:02:10.057Z,8.3
2023-02-18T14:03:10.064Z,8.2
2023-02-18T14:04:10.003Z,8.2
2023-02-18T14:05:10.067Z,8.2
2023-02-18T14:06:11.640Z,8.2
2023-02-18T14:07:13.637Z,8.1
2023-02-18T14:08:15.632Z,8.1
2023-02-18T14:09:17.647Z,8.1
2023-02-18T14:10:20.691Z,8
2023-02-18T14:11:22.641Z,8
2023-02-18T14:12:24.640Z,8
2023-02-18T14:13:26.640Z,8
2023-02-18T14:14:28.635Z,8
2023-02-18T14:15:30.731Z,8
2023-02-18T14:16:32.632Z,8
2023-02-18T14:17:34.701Z,8
2023-02-18T14:18:37.133Z,8
2023-02-18T14:19:38.664Z,8
2023-02-18T14:21:03.592Z,8
2023-02-18T14:21:47.460Z,8
2023-02-18T14:22:50.468Z,8
2023-02-18T14:23:52.438Z,8
2023-02-18T14:27:00.495Z,8.1
2023-02-18T14:31:10.868Z,8.1
2023-02-18T14:32:12.620Z,8.1
2023-02-18T14:33:14.445Z,8.1
2023-02-18T14:34:16.464Z,8.1
2023-02-18T14:35:18.458Z,8.1
2023-02-18T14:36:20.458Z,8.1
2023-02-18T14:37:22.510Z,8.1
2023-02-18T14:38:24.500Z,8.1
2023-02-18T14:39:27.451Z,8.1
2023-02-18T14:40:29.460Z,8.1
2023-02-18T14:41:31.480Z,8.1
2023-02-18T14:42:33.448Z,8.1
2023-02-18T14:44:38.476Z,8.1
2023-02-18T14:45:40.488Z,8.1
2023-02-18T14:46:44.464Z,8.1
2023-02-18T14:47:47.460Z,8.1
2023-02-18T14:48:49.466Z,8.1
2023-02-18T14:49:51.562Z,8.1
2023-02-18T14:50:54.463Z,8.1
2023-02-18T14:51:56.462Z,8.1
2023-02-18T14:52:58.469Z,8.1
2023-02-18T14:54:00.478Z,8.1
2023-02-18T14:55:02.585Z,8.1
2023-02-18T14:56:04.700Z,8.1
2023-02-18T14:57:06.659Z,8.1
2023-02-18T15:02:04.180Z,8
2023-02-18T15:02:52.819Z,8
2023-02-18T15:03:55.816Z,8
2023-02-18T15:15:58.194Z,8
2023-02-18T15:16:48.609Z,8
2023-02-18T15:18:13.870Z,8
2023-02-18T15:23:04.295Z,8
2023-02-18T15:24:06.302Z,8
2023-02-18T15:26:11.577Z,7.9
2023-02-18T15:27:13.261Z,7.9
2023-02-18T15:28:16.262Z,7.9
2023-02-18T15:29:18.258Z,7.9
2023-02-18T15:31:12.654Z,7.9
2023-02-18T15:32:10.203Z,7.9
2023-02-18T15:33:10.056Z,7.9
2023-02-18T15:34:10.063Z,7.9
2023-02-18T15:35:10.059Z,7.9
2023-02-18T15:36:10.065Z,7.9
2023-02-18T15:37:12.243Z,7.8
2023-02-18T15:38:10.063Z,7.8
2023-02-18T15:39:10.072Z,7.8
2023-02-18T15:40:10.163Z,7.8
2023-02-18T15:41:10.409Z,7.8
2023-02-18T15:42:10.061Z,7.8
2023-02-18T15:43:50.295Z,7.8
2023-02-18T15:44:53.267Z,7.8
2023-02-18T15:48:32.739Z,7.8
2023-02-18T15:48:33.243Z,7.8
2023-02-18T15:50:22.255Z,7.8
2023-02-18T15:52:58.165Z,7.8
2023-02-18T15:54:01.153Z,7.8
2023-02-18T15:55:03.181Z,7.8
2023-02-18T15:57:07.171Z,7.8
2023-02-18T15:58:09.210Z,7.8
2023-02-18T16:06:30.471Z,7.8
2023-02-18T16:06:30.902Z,7.8
2023-02-18T16:08:14.108Z,7.8
2023-02-18T16:18:20.791Z,7.8
2023-02-18T16:18:33.912Z,7.8
2023-02-18T16:19:17.361Z,7.9
2023-02-18T16:21:53.859Z,7.9
2023-02-18T16:23:53.596Z,7.9
2023-02-18T16:25:49.652Z,7.8
2023-02-18T16:26:53.716Z,7.8
2023-02-18T16:27:53.872Z,7.8
2023-02-18T16:28:55.665Z,7.9
2023-02-18T16:29:57.718Z,7.9
2023-02-18T16:30:59.654Z,7.9
2023-02-18T16:32:01.877Z,7.8
2023-02-18T16:33:53.687Z,7.8
2023-02-18T16:34:53.663Z,7.8
2023-02-18T16:35:53.670Z,7.8
2023-02-18T16:36:53.661Z,7.8
2023-02-18T16:37:53.675Z,7.8
2023-02-18T16:41:30.663Z,7.7
2023-02-18T16:43:53.692Z,7.8
2023-02-18T16:45:09.176Z,7.8
2023-02-18T16:46:11.561Z,7.8
2023-02-18T16:56:10.052Z,7.8
2023-02-18T16:56:10.532Z,7.8
2023-02-18T16:57:44.184Z,7.8
2023-02-18T16:58:44.181Z,7.8
2023-02-18T17:00:23.923Z,7.8
2023-02-18T17:01:12.032Z,7.8
2023-02-18T17:03:17.028Z,7.8
2023-02-18T17:06:38.456Z,7.8
2023-02-18T17:07:44.145Z,7.8
2023-02-18T17:08:44.167Z,7.8
2023-02-18T17:09:44.457Z,7.8
2023-02-18T17:10:46.424Z,7.8
2023-02-18T17:11:48.408Z,7.8
2023-02-18T17:12:51.441Z,7.8
2023-02-18T17:13:54.475Z,7.8
2023-02-18T17:14:56.425Z,7.8
2023-02-18T17:16:44.244Z,7.7
2023-02-18T17:18:44.184Z,7.7
2023-02-18T17:19:44.150Z,7.7
2023-02-18T17:20:44.153Z,7.7
2023-02-18T17:21:44.185Z,7.7
2023-02-18T17:22:44.153Z,7.7
2023-02-18T17:23:44.191Z,7.7
2023-02-18T17:24:44.175Z,7.7
2023-02-18T17:26:19.559Z,7.7
2023-02-18T17:27:21.435Z,7.7
2023-02-18T17:28:23.444Z,7.7
2023-02-18T17:29:25.460Z,7.7
2023-02-18T17:30:27.570Z,7.7
2023-02-18T17:31:29.546Z,7.7
2023-02-18T17:32:31.446Z,7.7
2023-02-18T17:33:33.474Z,7.7
2023-02-18T17:34:35.438Z,7.7
2023-02-18T17:35:37.487Z,7.7
2023-02-18T17:36:40.440Z,7.7
2023-02-18T17:37:42.448Z,7.7
2023-02-18T17:38:44.486Z,7.7
2023-02-18T17:39:46.449Z,7.7
2023-02-18T17:40:48.454Z,7.7
2023-02-18T17:43:44.200Z,7.7
2023-02-18T17:44:44.180Z,7.7
2023-02-18T17:45:57.238Z,7.7
2023-02-18T17:49:59.449Z,7.7
2023-02-18T17:50:00.795Z,7.7
2023-02-18T17:50:44.182Z,7.7
2023-02-18T17:52:21.712Z,7.7
2023-02-18T17:53:23.727Z,7.7
2023-02-18T17:54:39.065Z,7.7
2023-02-18T17:55:27.797Z,7.7
2023-02-18T17:56:29.795Z,7.7
2023-02-18T17:57:32.866Z,7.7
2023-02-18T17:58:34.794Z,7.7
2023-02-18T17:59:51.124Z,7.7
2023-02-18T18:00:38.800Z,7.7
2023-02-18T18:01:40.789Z,7.7
2023-02-18T18:02:43.857Z,7.7
2023-02-18T18:03:45.819Z,7.7
2023-02-18T18:05:49.787Z,7.7
2023-02-18T18:06:51.798Z,7.7
2023-02-18T18:07:53.849Z,7.6
2023-02-18T18:08:56.416Z,7.6
2023-02-18T18:09:58.442Z,7.6
2023-02-18T18:12:46.197Z,7.6
2023-02-18T18:13:32.957Z,7.6
2023-02-18T18:14:34.861Z,7.6
2023-02-18T18:15:36.871Z,7.6
2023-02-18T18:16:38.898Z,7.6
2023-02-18T18:17:41.861Z,7.6
2023-02-18T18:18:44.164Z,7.6
2023-02-18T18:20:56.939Z,7.5
2023-02-18T18:21:49.859Z,7.5
2023-02-18T18:23:44.226Z,7.5
2023-02-18T18:24:44.239Z,7.4
2023-02-18T18:25:44.198Z,7.4
2023-02-18T18:26:44.198Z,7.5
2023-02-18T18:27:44.203Z,7.5
2023-02-18T18:28:44.234Z,7.5
2023-02-18T18:29:44.216Z,7.5
2023-02-18T18:30:44.312Z,7.5
2023-02-18T18:31:44.279Z,7.5
2023-02-18T18:32:44.216Z,7.4
2023-02-18T18:33:44.275Z,7.4
2023-02-18T18:34:44.277Z,7.4
2023-02-18T18:35:44.226Z,7.5
2023-02-18T18:38:25.101Z,7.5
2023-02-18T18:41:31.043Z,7.5
2023-02-18T18:42:33.080Z,7.5
2023-02-18T18:44:44.252Z,7.6
2023-02-18T18:45:44.214Z,7.5
2023-02-18T18:46:44.217Z,7.5
2023-02-18T18:47:57.016Z,7.5
2023-02-18T18:48:45.424Z,7.5
2023-02-18T18:50:44.240Z,7.5
2023-02-18T18:51:44.224Z,7.5
2023-02-18T18:52:44.224Z,7.5
2023-02-18T18:56:44.268Z,7.5
2023-02-18T18:57:46.889Z,7.5
2023-02-18T19:01:51.360Z,7.4
2023-02-18T19:02:53.255Z,7.4
2023-02-18T19:07:19.848Z,7.4
2023-02-18T19:08:21.886Z,7.4
2023-02-18T19:09:23.892Z,7.4
2023-02-18T19:10:25.848Z,7.4
2023-02-18T19:12:29.855Z,7.4
2023-02-18T19:13:31.881Z,7.4
2023-02-18T19:14:33.855Z,7.4
2023-02-18T19:15:35.907Z,7.4
2023-02-18T19:16:37.871Z,7.4
2023-02-18T19:17:39.868Z,7.4
2023-02-18T19:18:41.927Z,7.3
2023-02-18T19:19:43.869Z,7.3
2023-02-18T19:20:45.865Z,7.3
2023-02-18T19:21:47.876Z,7.3
2023-02-18T19:22:50.483Z,7.3
2023-02-18T19:23:53.498Z,7.3
2023-02-18T19:24:55.544Z,7.3
2023-02-18T19:25:57.492Z,7.3
2023-02-18T19:27:31.346Z,7.3
2023-02-18T19:28:34.242Z,7.2
2023-02-18T19:29:36.239Z,7.2
2023-02-18T19:30:38.274Z,7.2
2023-02-18T19:31:40.439Z,7.2
2023-02-18T19:32:42.254Z,7.3
2023-02-18T19:33:56.961Z,7.3
2023-02-18T19:34:47.153Z,7.3
2023-02-18T19:37:54.789Z,7.3
2023-02-18T19:39:59.823Z,7.3
2023-02-18T19:41:01.731Z,7.4
2023-02-18T19:42:04.618Z,7.4
2023-02-18T19:43:07.307Z,7.3
2023-02-18T19:44:09.242Z,7.4
2023-02-18T19:48:04.544Z,7.3
2023-02-18T19:48:05.004Z,7.3
2023-02-18T19:51:15.053Z,7.4
2023-02-18T19:53:44.314Z,7.3
2023-02-18T19:54:44.405Z,7.3
2023-02-18T19:56:48.487Z,7.3
2023-02-18T19:57:50.231Z,7.2
2023-02-18T19:58:53.236Z,7.2
2023-02-18T19:59:56.222Z,7.2
2023-02-18T20:00:58.216Z,7.3
2023-02-18T20:02:00.224Z,7.3
2023-02-18T20:03:02.277Z,7.3
2023-02-18T20:04:04.298Z,7.3
2023-02-18T20:05:06.215Z,7.3
2023-02-18T20:06:08.219Z,7.2
2023-02-18T20:07:10.224Z,7.2
2023-02-18T20:08:12.236Z,7.2
2023-02-18T20:09:14.230Z,7.2
2023-02-18T20:10:44.308Z,7.2
2023-02-18T20:11:44.275Z,7.2
2023-02-18T20:12:44.325Z,7.2
2023-02-18T20:13:44.281Z,7.1
2023-02-18T20:14:44.272Z,7.1
2023-02-18T20:15:44.360Z,7.2
2023-02-18T20:18:49.105Z,7.2
2023-02-18T20:26:51.326Z,7.1
2023-02-18T20:26:52.725Z,7.1
2023-02-18T20:27:22.955Z,7.1
2023-02-18T20:28:30.055Z,7.1
2023-02-18T20:29:31.937Z,7.1
2023-02-18T20:30:33.967Z,7.1
2023-02-18T20:31:36.034Z,7.1
2023-02-18T20:32:38.041Z,7.1
2023-02-18T20:33:59.734Z,7
2023-02-18T20:34:47.000Z,7
2023-02-18T20:35:48.980Z,7
2023-02-18T20:36:52.974Z,6.9
2023-02-18T20:37:54.977Z,6.9
2023-02-18T20:39:00.476Z,7
2023-02-18T20:39:59.025Z,7.1
2023-02-18T20:41:01.022Z,7.2
2023-02-18T20:42:14.489Z,7.2
2023-02-18T20:43:12.106Z,7.2
2023-02-18T20:47:20.232Z,7.3
2023-02-18T20:51:37.365Z,7.2
2023-02-18T20:52:15.118Z,7.2
2023-02-18T20:53:18.143Z,7.2
2023-02-18T20:55:35.712Z,7.2
2023-02-18T20:58:28.120Z,7.2